National Weather Service Raw Text Product

Displaying AFOS PIL: TAFALO Received: 2018-08-11 05:20 UTC


372 
FTUS43 KDMX 110520
TAFALO
TAF
KALO 110520Z 1106/1206 VRB03KT P6SM FEW250
     FM111000 00000KT 4SM BR FEW200
     FM111400 VRB03KT P6SM SCT250=